sensor_id;sensor_type;location;lat;lon;timestamp;pressure;altitude;pressure_sealevel;temperature;humidity
24302;BME280;12421;49.732;20.078;2023-02-23T00:03:12;96911.16;;;-1.30;80.23
24302;BME280;12421;49.732;20.078;2023-02-23T00:13:20;96909.09;;;-1.39;80.15
24302;BME280;12421;49.732;20.078;2023-02-23T00:23:24;96905.44;;;-1.31;80.47
24302;BME280;12421;49.732;20.078;2023-02-23T00:33:29;96902.67;;;-1.41;79.93
24302;BME280;12421;49.732;20.078;2023-02-23T00:43:36;96907.98;;;-1.66;79.97
24302;BME280;12421;49.732;20.078;2023-02-23T00:53:40;96904.71;;;-1.71;80.44
24302;BME280;12421;49.732;20.078;2023-02-23T01:03:44;96904.11;;;-1.69;80.46
24302;BME280;12421;49.732;20.078;2023-02-23T01:13:50;96905.45;;;-1.74;80.11
24302;BME280;12421;49.732;20.078;2023-02-23T01:23:54;96898.77;;;-1.88;80.22
24302;BME280;12421;49.732;20.078;2023-02-23T01:33:59;96892.75;;;-1.88;80.74
24302;BME280;12421;49.732;20.078;2023-02-23T01:44:57;96887.53;;;-1.98;80.36
24302;BME280;12421;49.732;20.078;2023-02-23T01:54:38;96878.77;;;-1.99;80.82
24302;BME280;12421;49.732;20.078;2023-02-23T02:04:43;96872.70;;;-2.05;80.28
24302;BME280;12421;49.732;20.078;2023-02-23T02:14:47;96867.73;;;-2.09;80.22
24302;BME280;12421;49.732;20.078;2023-02-23T02:35:40;96863.42;;;-2.23;79.73
24302;BME280;12421;49.732;20.078;2023-02-23T02:46:10;96861.33;;;-2.42;79.93
24302;BME280;12421;49.732;20.078;2023-02-23T02:56:17;96854.05;;;-2.48;80.11
24302;BME280;12421;49.732;20.078;2023-02-23T03:06:35;96854.86;;;-2.63;79.93
24302;BME280;12421;49.732;20.078;2023-02-23T03:17:08;96851.52;;;-2.74;80.49
24302;BME280;12421;49.732;20.078;2023-02-23T03:38:13;96850.77;;;-2.89;80.63
24302;BME280;12421;49.732;20.078;2023-02-23T03:48:38;96849.20;;;-2.98;80.61
24302;BME280;12421;49.732;20.078;2023-02-23T03:59:04;96850.64;;;-3.01;80.62
24302;BME280;12421;49.732;20.078;2023-02-23T04:09:27;96849.84;;;-3.00;80.51
24302;BME280;12421;49.732;20.078;2023-02-23T04:19:52;96850.01;;;-2.82;80.47
24302;BME280;12421;49.732;20.078;2023-02-23T04:29:56;96849.30;;;-2.82;80.06
24302;BME280;12421;49.732;20.078;2023-02-23T04:39:59;96851.11;;;-2.85;79.99
24302;BME280;12421;49.732;20.078;2023-02-23T04:50:02;96852.48;;;-2.94;79.88
24302;BME280;12421;49.732;20.078;2023-02-23T05:00:08;96850.09;;;-3.14;79.89
24302;BME280;12421;49.732;20.078;2023-02-23T05:10:12;96842.15;;;-3.20;80.39
24302;BME280;12421;49.732;20.078;2023-02-23T05:20:15;96845.90;;;-3.21;80.19
24302;BME280;12421;49.732;20.078;2023-02-23T05:30:19;96844.42;;;-3.15;80.64
24302;BME280;12421;49.732;20.078;2023-02-23T05:40:22;96851.40;;;-3.07;80.30
24302;BME280;12421;49.732;20.078;2023-02-23T05:50:25;96852.91;;;-3.08;80.15
24302;BME280;12421;49.732;20.078;2023-02-23T06:00:28;96853.22;;;-3.09;80.48
24302;BME280;12421;49.732;20.078;2023-02-23T06:10:31;96863.78;;;-2.94;81.04
24302;BME280;12421;49.732;20.078;2023-02-23T06:20:36;96866.10;;;-2.74;80.79
24302;BME280;12421;49.732;20.078;2023-02-23T06:30:42;96867.50;;;-2.42;81.16
24302;BME280;12421;49.732;20.078;2023-02-23T06:40:46;96864.57;;;-2.06;80.83
24302;BME280;12421;49.732;20.078;2023-02-23T06:50:49;96865.96;;;-1.72;80.69
24302;BME280;12421;49.732;20.078;2023-02-23T07:01:11;96868.87;;;-1.43;80.58
24302;BME280;12421;49.732;20.078;2023-02-23T07:11:16;96865.07;;;-1.01;81.12
24302;BME280;12421;49.732;20.078;2023-02-23T07:21:21;96861.91;;;-0.55;80.31
24302;BME280;12421;49.732;20.078;2023-02-23T07:31:25;96861.92;;;-0.14;80.48
24302;BME280;12421;49.732;20.078;2023-02-23T07:41:28;96858.63;;;0.41;80.34
24302;BME280;12421;49.732;20.078;2023-02-23T07:51:32;96858.94;;;0.92;80.32
24302;BME280;12421;49.732;20.078;2023-02-23T08:01:36;96859.30;;;1.35;79.90
24302;BME280;12421;49.732;20.078;2023-02-23T08:11:39;96854.00;;;1.68;79.25
24302;BME280;12421;49.732;20.078;2023-02-23T08:21:42;96854.65;;;2.06;79.01
24302;BME280;12421;49.732;20.078;2023-02-23T08:31:46;96857.94;;;2.40;78.43
24302;BME280;12421;49.732;20.078;2023-02-23T08:41:49;96852.83;;;2.74;77.83
24302;BME280;12421;49.732;20.078;2023-02-23T08:51:53;96848.66;;;3.13;77.59
24302;BME280;12421;49.732;20.078;2023-02-23T09:01:57;96843.95;;;3.44;77.28
24302;BME280;12421;49.732;20.078;2023-02-23T09:12:00;96842.34;;;3.64;77.25
24302;BME280;12421;49.732;20.078;2023-02-23T09:22:04;96841.97;;;4.00;77.19
24302;BME280;12421;49.732;20.078;2023-02-23T09:32:09;96839.42;;;4.32;76.19
24302;BME280;12421;49.732;20.078;2023-02-23T09:42:33;96837.04;;;4.68;75.85
24302;BME280;12421;49.732;20.078;2023-02-23T09:52:43;96831.36;;;5.10;75.63
24302;BME280;12421;49.732;20.078;2023-02-23T10:13:57;96820.80;;;6.28;74.23
24302;BME280;12421;49.732;20.078;2023-02-23T10:34:55;96807.21;;;7.48;72.55
24302;BME280;12421;49.732;20.078;2023-02-23T10:44:59;96803.31;;;7.81;71.89
24302;BME280;12421;49.732;20.078;2023-02-23T10:55:06;96793.94;;;8.18;71.81
24302;BME280;12421;49.732;20.078;2023-02-23T11:05:45;96787.38;;;8.44;70.89
24302;BME280;12421;49.732;20.078;2023-02-23T11:16:12;96776.73;;;8.70;70.88
24302;BME280;12421;49.732;20.078;2023-02-23T11:26:21;96764.71;;;9.12;69.97
24302;BME280;12421;49.732;20.078;2023-02-23T11:36:29;96755.34;;;9.61;68.01
24302;BME280;12421;49.732;20.078;2023-02-23T11:46:36;96741.48;;;9.96;65.28
24302;BME280;12421;49.732;20.078;2023-02-23T11:56:47;96732.56;;;10.08;64.22
24302;BME280;12421;49.732;20.078;2023-02-23T12:17:28;96711.42;;;10.66;65.61
24302;BME280;12421;49.732;20.078;2023-02-23T12:27:42;96707.31;;;11.05;65.43
24302;BME280;12421;49.732;20.078;2023-02-23T12:37:56;96699.39;;;11.16;65.70
24302;BME280;12421;49.732;20.078;2023-02-23T13:21:45;96656.56;;;11.98;64.20
24302;BME280;12421;49.732;20.078;2023-02-23T13:31:52;96652.58;;;11.95;63.40
24302;BME280;12421;49.732;20.078;2023-02-23T14:02:45;96619.14;;;12.12;60.42
24302;BME280;12421;49.732;20.078;2023-02-23T14:23:28;96603.19;;;12.24;59.30
24302;BME280;12421;49.732;20.078;2023-02-23T14:43:59;96589.33;;;11.99;61.29
24302;BME280;12421;49.732;20.078;2023-02-23T14:54:12;96583.11;;;11.69;61.78
24302;BME280;12421;49.732;20.078;2023-02-23T15:16:29;96567.41;;;11.00;63.04
24302;BME280;12421;49.732;20.078;2023-02-23T15:26:57;96563.48;;;10.64;63.15
24302;BME280;12421;49.732;20.078;2023-02-23T15:37:37;96555.10;;;10.29;64.33
24302;BME280;12421;49.732;20.078;2023-02-23T15:48:12;96549.65;;;9.82;65.15
24302;BME280;12421;49.732;20.078;2023-02-23T15:58:48;96544.27;;;9.39;65.99
24302;BME280;12421;49.732;20.078;2023-02-23T16:09:30;96544.84;;;8.91;66.62
24302;BME280;12421;49.732;20.078;2023-02-23T16:20:19;96542.55;;;8.37;67.89
24302;BME280;12421;49.732;20.078;2023-02-23T16:31:18;96540.59;;;7.93;69.00
24302;BME280;12421;49.732;20.078;2023-02-23T16:41:43;96540.34;;;7.50;70.07
24302;BME280;12421;49.732;20.078;2023-02-23T16:52:19;96541.52;;;7.23;70.77
24302;BME280;12421;49.732;20.078;2023-02-23T17:02:55;96551.56;;;6.91;71.70
24302;BME280;12421;49.732;20.078;2023-02-23T17:13:28;96542.92;;;6.61;72.51
24302;BME280;12421;49.732;20.078;2023-02-23T17:23:58;96540.85;;;6.49;73.37
24302;BME280;12421;49.732;20.078;2023-02-23T17:34:29;96542.23;;;6.54;73.90
24302;BME280;12421;49.732;20.078;2023-02-23T17:44:57;96532.64;;;6.51;74.00
24302;BME280;12421;49.732;20.078;2023-02-23T17:55:24;96527.98;;;6.32;74.17
24302;BME280;12421;49.732;20.078;2023-02-23T18:05:51;96515.60;;;6.21;74.57
24302;BME280;12421;49.732;20.078;2023-02-23T18:16:18;96511.23;;;6.22;74.91
24302;BME280;12421;49.732;20.078;2023-02-23T18:26:45;96508.27;;;6.27;75.19
24302;BME280;12421;49.732;20.078;2023-02-23T18:37:12;96500.58;;;6.43;75.12
24302;BME280;12421;49.732;20.078;2023-02-23T18:47:46;96493.21;;;6.58;74.88
24302;BME280;12421;49.732;20.078;2023-02-23T18:58:13;96490.90;;;6.77;74.51
24302;BME280;12421;49.732;20.078;2023-02-23T19:08:49;96486.36;;;6.77;74.21
24302;BME280;12421;49.732;20.078;2023-02-23T19:19:19;96480.30;;;6.66;74.22
24302;BME280;12421;49.732;20.078;2023-02-23T19:29:47;96480.14;;;6.59;74.44
24302;BME280;12421;49.732;20.078;2023-02-23T19:40:15;96477.67;;;6.67;74.67
24302;BME280;12421;49.732;20.078;2023-02-23T19:50:47;96464.23;;;6.71;74.40
24302;BME280;12421;49.732;20.078;2023-02-23T20:01:16;96455.52;;;6.68;74.46
24302;BME280;12421;49.732;20.078;2023-02-23T20:11:43;96453.45;;;6.64;74.85
24302;BME280;12421;49.732;20.078;2023-02-23T20:22:10;96444.17;;;6.72;74.95
24302;BME280;12421;49.732;20.078;2023-02-23T20:32:39;96436.98;;;6.79;75.09
24302;BME280;12421;49.732;20.078;2023-02-23T20:43:06;96428.64;;;6.73;74.80
24302;BME280;12421;49.732;20.078;2023-02-23T20:53:34;96423.29;;;6.60;74.82
24302;BME280;12421;49.732;20.078;2023-02-23T21:04:01;96420.86;;;6.53;75.03
24302;BME280;12421;49.732;20.078;2023-02-23T21:14:28;96409.73;;;6.51;74.78
24302;BME280;12421;49.732;20.078;2023-02-23T21:24:56;96395.31;;;6.33;75.07
24302;BME280;12421;49.732;20.078;2023-02-23T21:35:25;96384.02;;;6.20;75.48
24302;BME280;12421;49.732;20.078;2023-02-23T21:45:53;96384.54;;;6.21;75.77
24302;BME280;12421;49.732;20.078;2023-02-23T21:56:21;96383.13;;;6.28;75.91
24302;BME280;12421;49.732;20.078;2023-02-23T22:06:50;96370.71;;;6.35;75.69
24302;BME280;12421;49.732;20.078;2023-02-23T22:17:17;96367.93;;;6.36;75.56
24302;BME280;12421;49.732;20.078;2023-02-23T22:27:45;96361.33;;;6.32;75.67
24302;BME280;12421;49.732;20.078;2023-02-23T22:38:12;96351.38;;;6.32;75.50
24302;BME280;12421;49.732;20.078;2023-02-23T22:48:41;96340.27;;;6.26;75.54
24302;BME280;12421;49.732;20.078;2023-02-23T22:59:10;96329.84;;;6.14;75.79
24302;BME280;12421;49.732;20.078;2023-02-23T23:09:42;96320.45;;;6.09;76.05
24302;BME280;12421;49.732;20.078;2023-02-23T23:19:47;96309.66;;;6.05;76.39
24302;BME280;12421;49.732;20.078;2023-02-23T23:29:51;96295.56;;;6.01;76.60
24302;BME280;12421;49.732;20.078;2023-02-23T23:39:54;96284.05;;;6.03;77.02
24302;BME280;12421;49.732;20.078;2023-02-23T23:50:07;96279.15;;;6.08;76.87
